sensor_id;sensor_type;location;lat;lon;timestamp;P1;durP1;ratioP1;P2;durP2;ratioP2
24090;SDS011;12272;52.426;17.100;2023-04-24T00:04:54;18.50;;;14.37;;
24090;SDS011;12272;52.426;17.100;2023-04-24T00:09:57;26.97;;;17.50;;
24090;SDS011;12272;52.426;17.100;2023-04-24T00:15:00;20.20;;;15.33;;
24090;SDS011;12272;52.426;17.100;2023-04-24T00:20:03;20.07;;;14.60;;
24090;SDS011;12272;52.426;17.100;2023-04-24T00:25:08;16.83;;;14.03;;
24090;SDS011;12272;52.426;17.100;2023-04-24T00:30:11;16.07;;;13.27;;
24090;SDS011;12272;52.426;17.100;2023-04-24T00:35:14;19.60;;;14.07;;
24090;SDS011;12272;52.426;17.100;2023-04-24T00:40:17;20.23;;;15.40;;
24090;SDS011;12272;52.426;17.100;2023-04-24T00:45:20;15.60;;;11.50;;
24090;SDS011;12272;52.426;17.100;2023-04-24T00:50:23;19.47;;;15.27;;
24090;SDS011;12272;52.426;17.100;2023-04-24T00:55:26;15.67;;;13.37;;
24090;SDS011;12272;52.426;17.100;2023-04-24T01:00:29;18.53;;;14.27;;
24090;SDS011;12272;52.426;17.100;2023-04-24T01:05:32;18.33;;;14.37;;
24090;SDS011;12272;52.426;17.100;2023-04-24T01:10:36;18.03;;;14.73;;
24090;SDS011;12272;52.426;17.100;2023-04-24T01:15:39;18.57;;;13.70;;
24090;SDS011;12272;52.426;17.100;2023-04-24T01:20:42;16.37;;;14.37;;
24090;SDS011;12272;52.426;17.100;2023-04-24T01:25:46;21.37;;;15.13;;
24090;SDS011;12272;52.426;17.100;2023-04-24T01:30:50;18.13;;;14.10;;
24090;SDS011;12272;52.426;17.100;2023-04-24T01:35:57;21.07;;;14.97;;
24090;SDS011;12272;52.426;17.100;2023-04-24T01:40:59;16.30;;;12.80;;
24090;SDS011;12272;52.426;17.100;2023-04-24T01:46:02;15.00;;;11.87;;
24090;SDS011;12272;52.426;17.100;2023-04-24T01:51:05;16.40;;;13.07;;
24090;SDS011;12272;52.426;17.100;2023-04-24T01:56:08;17.87;;;14.37;;
24090;SDS011;12272;52.426;17.100;2023-04-24T02:01:14;16.00;;;10.87;;
24090;SDS011;12272;52.426;17.100;2023-04-24T02:06:25;10.40;;;8.80;;
24090;SDS011;12272;52.426;17.100;2023-04-24T02:11:27;6.77;;;6.13;;
24090;SDS011;12272;52.426;17.100;2023-04-24T02:16:30;16.73;;;12.13;;
24090;SDS011;12272;52.426;17.100;2023-04-24T02:21:34;16.20;;;12.90;;
24090;SDS011;12272;52.426;17.100;2023-04-24T02:26:37;17.10;;;12.40;;
24090;SDS011;12272;52.426;17.100;2023-04-24T02:31:39;14.73;;;11.83;;
24090;SDS011;12272;52.426;17.100;2023-04-24T02:36:42;18.53;;;12.87;;
24090;SDS011;12272;52.426;17.100;2023-04-24T02:41:44;16.70;;;12.73;;
24090;SDS011;12272;52.426;17.100;2023-04-24T02:46:47;15.00;;;12.60;;
24090;SDS011;12272;52.426;17.100;2023-04-24T02:51:51;18.10;;;13.23;;
24090;SDS011;12272;52.426;17.100;2023-04-24T02:56:53;19.63;;;13.60;;
24090;SDS011;12272;52.426;17.100;2023-04-24T03:01:57;19.40;;;15.00;;
24090;SDS011;12272;52.426;17.100;2023-04-24T03:06:59;14.80;;;11.47;;
24090;SDS011;12272;52.426;17.100;2023-04-24T03:12:02;23.17;;;13.20;;
24090;SDS011;12272;52.426;17.100;2023-04-24T03:17:05;15.93;;;12.77;;
24090;SDS011;12272;52.426;17.100;2023-04-24T03:22:08;11.33;;;9.40;;
24090;SDS011;12272;52.426;17.100;2023-04-24T03:27:12;15.70;;;12.10;;
24090;SDS011;12272;52.426;17.100;2023-04-24T03:32:34;14.47;;;11.53;;
24090;SDS011;12272;52.426;17.100;2023-04-24T03:37:38;15.70;;;12.60;;
24090;SDS011;12272;52.426;17.100;2023-04-24T03:43:03;10.40;;;9.20;;
24090;SDS011;12272;52.426;17.100;2023-04-24T03:48:06;15.07;;;10.60;;
24090;SDS011;12272;52.426;17.100;2023-04-24T03:53:09;15.07;;;12.77;;
24090;SDS011;12272;52.426;17.100;2023-04-24T03:58:15;17.30;;;13.87;;
24090;SDS011;12272;52.426;17.100;2023-04-24T04:03:18;15.07;;;12.47;;
24090;SDS011;12272;52.426;17.100;2023-04-24T04:08:21;9.50;;;8.17;;
24090;SDS011;12272;52.426;17.100;2023-04-24T04:13:23;9.00;;;6.97;;
24090;SDS011;12272;52.426;17.100;2023-04-24T04:18:26;11.43;;;9.60;;
24090;SDS011;12272;52.426;17.100;2023-04-24T04:23:29;14.57;;;11.77;;
24090;SDS011;12272;52.426;17.100;2023-04-24T04:28:52;14.33;;;11.27;;
24090;SDS011;12272;52.426;17.100;2023-04-24T04:33:55;13.33;;;9.77;;
24090;SDS011;12272;52.426;17.100;2023-04-24T04:38:57;12.33;;;10.50;;
24090;SDS011;12272;52.426;17.100;2023-04-24T04:44:30;10.63;;;9.27;;
24090;SDS011;12272;52.426;17.100;2023-04-24T04:49:34;16.40;;;11.33;;
24090;SDS011;12272;52.426;17.100;2023-04-24T04:54:39;13.67;;;10.63;;
24090;SDS011;12272;52.426;17.100;2023-04-24T04:59:42;11.87;;;9.33;;
24090;SDS011;12272;52.426;17.100;2023-04-24T05:04:53;13.27;;;10.37;;
24090;SDS011;12272;52.426;17.100;2023-04-24T05:09:56;13.23;;;11.00;;
24090;SDS011;12272;52.426;17.100;2023-04-24T05:14:59;15.57;;;11.27;;
24090;SDS011;12272;52.426;17.100;2023-04-24T05:20:02;11.57;;;9.30;;
24090;SDS011;12272;52.426;17.100;2023-04-24T05:25:08;11.73;;;8.93;;
24090;SDS011;12272;52.426;17.100;2023-04-24T05:30:16;10.50;;;8.23;;
24090;SDS011;12272;52.426;17.100;2023-04-24T05:35:18;11.37;;;10.03;;
24090;SDS011;12272;52.426;17.100;2023-04-24T05:40:21;13.40;;;9.80;;
24090;SDS011;12272;52.426;17.100;2023-04-24T05:45:23;13.43;;;9.40;;
24090;SDS011;12272;52.426;17.100;2023-04-24T05:50:26;11.13;;;9.20;;
24090;SDS011;12272;52.426;17.100;2023-04-24T05:55:30;12.53;;;10.70;;
24090;SDS011;12272;52.426;17.100;2023-04-24T06:00:34;13.63;;;7.53;;
24090;SDS011;12272;52.426;17.100;2023-04-24T06:05:41;9.07;;;7.77;;
24090;SDS011;12272;52.426;17.100;2023-04-24T06:10:45;16.80;;;13.53;;
24090;SDS011;12272;52.426;17.100;2023-04-24T06:15:49;14.40;;;11.40;;
24090;SDS011;12272;52.426;17.100;2023-04-24T06:21:08;15.53;;;13.13;;
24090;SDS011;12272;52.426;17.100;2023-04-24T06:26:11;12.20;;;9.43;;
24090;SDS011;12272;52.426;17.100;2023-04-24T06:31:14;10.60;;;8.30;;
24090;SDS011;12272;52.426;17.100;2023-04-24T06:36:16;11.57;;;9.53;;
24090;SDS011;12272;52.426;17.100;2023-04-24T06:41:19;8.57;;;7.67;;
24090;SDS011;12272;52.426;17.100;2023-04-24T06:46:22;11.60;;;10.00;;
24090;SDS011;12272;52.426;17.100;2023-04-24T06:51:28;13.17;;;10.10;;
24090;SDS011;12272;52.426;17.100;2023-04-24T06:56:30;14.27;;;11.17;;
24090;SDS011;12272;52.426;17.100;2023-04-24T07:01:33;9.57;;;8.53;;
24090;SDS011;12272;52.426;17.100;2023-04-24T07:06:36;16.77;;;12.40;;
24090;SDS011;12272;52.426;17.100;2023-04-24T07:11:39;13.37;;;12.00;;
24090;SDS011;12272;52.426;17.100;2023-04-24T07:16:42;16.13;;;11.00;;
24090;SDS011;12272;52.426;17.100;2023-04-24T07:21:45;22.97;;;12.30;;
24090;SDS011;12272;52.426;17.100;2023-04-24T07:26:48;17.07;;;11.90;;
24090;SDS011;12272;52.426;17.100;2023-04-24T07:31:53;14.03;;;10.37;;
24090;SDS011;12272;52.426;17.100;2023-04-24T07:36:56;19.93;;;13.83;;
24090;SDS011;12272;52.426;17.100;2023-04-24T07:41:59;18.10;;;14.20;;
24090;SDS011;12272;52.426;17.100;2023-04-24T07:47:01;17.03;;;12.07;;
24090;SDS011;12272;52.426;17.100;2023-04-24T07:52:04;13.83;;;9.83;;
24090;SDS011;12272;52.426;17.100;2023-04-24T07:57:06;18.87;;;12.83;;
24090;SDS011;12272;52.426;17.100;2023-04-24T08:02:10;9.90;;;8.63;;
24090;SDS011;12272;52.426;17.100;2023-04-24T08:07:12;5.87;;;5.23;;
24090;SDS011;12272;52.426;17.100;2023-04-24T08:12:15;11.90;;;8.43;;
24090;SDS011;12272;52.426;17.100;2023-04-24T08:17:17;4.87;;;4.37;;
24090;SDS011;12272;52.426;17.100;2023-04-24T08:22:20;10.57;;;8.93;;
24090;SDS011;12272;52.426;17.100;2023-04-24T08:27:23;9.97;;;8.93;;
24090;SDS011;12272;52.426;17.100;2023-04-24T08:32:25;7.90;;;6.33;;
24090;SDS011;12272;52.426;17.100;2023-04-24T08:37:31;9.60;;;8.57;;
24090;SDS011;12272;52.426;17.100;2023-04-24T08:42:34;15.33;;;9.03;;
24090;SDS011;12272;52.426;17.100;2023-04-24T08:47:39;13.17;;;8.40;;
24090;SDS011;12272;52.426;17.100;2023-04-24T08:52:43;9.90;;;8.37;;
24090;SDS011;12272;52.426;17.100;2023-04-24T08:57:48;8.57;;;7.77;;
24090;SDS011;12272;52.426;17.100;2023-04-24T09:02:53;12.60;;;8.30;;
24090;SDS011;12272;52.426;17.100;2023-04-24T09:07:58;11.13;;;8.83;;
24090;SDS011;12272;52.426;17.100;2023-04-24T09:13:09;9.13;;;6.50;;
24090;SDS011;12272;52.426;17.100;2023-04-24T09:18:13;9.27;;;6.83;;
24090;SDS011;12272;52.426;17.100;2023-04-24T09:23:17;13.03;;;9.60;;
24090;SDS011;12272;52.426;17.100;2023-04-24T09:28:22;12.77;;;8.47;;
24090;SDS011;12272;52.426;17.100;2023-04-24T09:33:34;8.07;;;6.83;;
24090;SDS011;12272;52.426;17.100;2023-04-24T09:38:38;9.03;;;7.57;;
24090;SDS011;12272;52.426;17.100;2023-04-24T09:43:41;8.97;;;7.70;;
24090;SDS011;12272;52.426;17.100;2023-04-24T09:48:43;11.13;;;7.43;;
24090;SDS011;12272;52.426;17.100;2023-04-24T09:53:46;10.30;;;8.10;;
24090;SDS011;12272;52.426;17.100;2023-04-24T09:58:58;9.43;;;8.00;;
24090;SDS011;12272;52.426;17.100;2023-04-24T10:04:06;12.10;;;8.23;;
24090;SDS011;12272;52.426;17.100;2023-04-24T10:09:25;9.83;;;8.47;;
24090;SDS011;12272;52.426;17.100;2023-04-24T10:14:28;15.33;;;11.13;;
24090;SDS011;12272;52.426;17.100;2023-04-24T10:19:32;14.60;;;11.03;;
24090;SDS011;12272;52.426;17.100;2023-04-24T10:24:35;10.23;;;9.23;;
24090;SDS011;12272;52.426;17.100;2023-04-24T10:29:40;11.03;;;7.80;;
24090;SDS011;12272;52.426;17.100;2023-04-24T10:34:45;11.93;;;7.47;;
24090;SDS011;12272;52.426;17.100;2023-04-24T10:39:48;10.10;;;9.07;;
24090;SDS011;12272;52.426;17.100;2023-04-24T10:44:52;9.67;;;7.00;;
24090;SDS011;12272;52.426;17.100;2023-04-24T10:49:58;5.67;;;5.00;;
24090;SDS011;12272;52.426;17.100;2023-04-24T10:55:01;9.97;;;8.90;;
24090;SDS011;12272;52.426;17.100;2023-04-24T11:00:18;8.40;;;7.60;;
24090;SDS011;12272;52.426;17.100;2023-04-24T11:05:22;8.10;;;6.90;;
24090;SDS011;12272;52.426;17.100;2023-04-24T11:10:57;5.90;;;5.30;;
24090;SDS011;12272;52.426;17.100;2023-04-24T11:16:14;7.87;;;7.17;;
24090;SDS011;12272;52.426;17.100;2023-04-24T11:21:17;7.77;;;7.00;;
24090;SDS011;12272;52.426;17.100;2023-04-24T11:26:23;9.53;;;8.63;;
24090;SDS011;12272;52.426;17.100;2023-04-24T11:31:37;11.07;;;7.37;;
24090;SDS011;12272;52.426;17.100;2023-04-24T11:36:47;8.90;;;8.10;;
24090;SDS011;12272;52.426;17.100;2023-04-24T11:41:50;6.10;;;5.50;;
24090;SDS011;12272;52.426;17.100;2023-04-24T11:46:55;4.77;;;4.37;;
24090;SDS011;12272;52.426;17.100;2023-04-24T11:52:01;6.33;;;5.57;;
24090;SDS011;12272;52.426;17.100;2023-04-24T11:57:05;5.30;;;4.87;;
24090;SDS011;12272;52.426;17.100;2023-04-24T12:02:08;4.43;;;3.67;;
24090;SDS011;12272;52.426;17.100;2023-04-24T12:07:10;4.80;;;4.30;;
24090;SDS011;12272;52.426;17.100;2023-04-24T12:12:13;3.83;;;3.40;;
24090;SDS011;12272;52.426;17.100;2023-04-24T12:17:17;4.40;;;4.00;;
24090;SDS011;12272;52.426;17.100;2023-04-24T12:22:52;5.03;;;3.83;;
24090;SDS011;12272;52.426;17.100;2023-04-24T12:33:05;7.53;;;4.47;;
24090;SDS011;12272;52.426;17.100;2023-04-24T12:38:08;4.67;;;4.27;;
24090;SDS011;12272;52.426;17.100;2023-04-24T12:43:16;6.13;;;5.53;;
24090;SDS011;12272;52.426;17.100;2023-04-24T12:48:21;6.73;;;5.10;;
24090;SDS011;12272;52.426;17.100;2023-04-24T12:53:24;6.17;;;5.57;;
24090;SDS011;12272;52.426;17.100;2023-04-24T12:58:28;8.27;;;6.33;;
24090;SDS011;12272;52.426;17.100;2023-04-24T13:03:31;7.63;;;5.93;;
24090;SDS011;12272;52.426;17.100;2023-04-24T13:08:33;6.27;;;5.40;;
24090;SDS011;12272;52.426;17.100;2023-04-24T13:13:36;5.50;;;5.10;;
24090;SDS011;12272;52.426;17.100;2023-04-24T13:18:38;8.73;;;5.80;;
24090;SDS011;12272;52.426;17.100;2023-04-24T13:23:41;5.03;;;4.57;;
24090;SDS011;12272;52.426;17.100;2023-04-24T13:28:44;6.47;;;4.37;;
24090;SDS011;12272;52.426;17.100;2023-04-24T13:33:47;5.83;;;4.17;;
24090;SDS011;12272;52.426;17.100;2023-04-24T13:38:50;5.80;;;4.67;;
24090;SDS011;12272;52.426;17.100;2023-04-24T13:43:52;4.33;;;3.93;;
24090;SDS011;12272;52.426;17.100;2023-04-24T13:48:55;4.83;;;3.60;;
24090;SDS011;12272;52.426;17.100;2023-04-24T13:53:58;2.83;;;2.63;;
24090;SDS011;12272;52.426;17.100;2023-04-24T13:59:01;4.83;;;3.23;;
24090;SDS011;12272;52.426;17.100;2023-04-24T14:04:04;5.70;;;2.70;;
24090;SDS011;12272;52.426;17.100;2023-04-24T14:09:07;5.57;;;2.30;;
24090;SDS011;12272;52.426;17.100;2023-04-24T14:14:10;2.97;;;2.17;;
24090;SDS011;12272;52.426;17.100;2023-04-24T14:19:13;4.53;;;3.10;;
24090;SDS011;12272;52.426;17.100;2023-04-24T14:24:15;3.77;;;2.83;;
24090;SDS011;12272;52.426;17.100;2023-04-24T14:29:19;2.83;;;2.03;;
24090;SDS011;12272;52.426;17.100;2023-04-24T14:34:21;3.60;;;2.80;;
24090;SDS011;12272;52.426;17.100;2023-04-24T14:39:24;3.92;;;2.50;;
24090;SDS011;12272;52.426;17.100;2023-04-24T14:44:26;2.58;;;2.30;;
24090;SDS011;12272;52.426;17.100;2023-04-24T14:49:29;3.97;;;2.50;;
24090;SDS011;12272;52.426;17.100;2023-04-24T14:54:31;4.30;;;3.10;;
24090;SDS011;12272;52.426;17.100;2023-04-24T14:59:34;3.97;;;2.30;;
24090;SDS011;12272;52.426;17.100;2023-04-24T15:04:36;4.00;;;2.77;;
24090;SDS011;12272;52.426;17.100;2023-04-24T15:09:39;3.58;;;2.80;;
24090;SDS011;12272;52.426;17.100;2023-04-24T15:14:42;2.87;;;2.57;;
24090;SDS011;12272;52.426;17.100;2023-04-24T15:19:44;6.07;;;2.90;;
24090;SDS011;12272;52.426;17.100;2023-04-24T15:24:47;3.30;;;3.00;;
24090;SDS011;12272;52.426;17.100;2023-04-24T15:29:49;2.75;;;2.53;;
24090;SDS011;12272;52.426;17.100;2023-04-24T15:34:52;5.65;;;2.47;;
24090;SDS011;12272;52.426;17.100;2023-04-24T15:40:09;3.30;;;2.33;;
24090;SDS011;12272;52.426;17.100;2023-04-24T15:45:15;3.78;;;2.80;;
24090;SDS011;12272;52.426;17.100;2023-04-24T15:50:17;4.00;;;2.40;;
24090;SDS011;12272;52.426;17.100;2023-04-24T15:55:22;3.53;;;2.92;;
24090;SDS011;12272;52.426;17.100;2023-04-24T16:00:24;2.80;;;2.45;;
24090;SDS011;12272;52.426;17.100;2023-04-24T16:05:29;4.32;;;2.78;;
24090;SDS011;12272;52.426;17.100;2023-04-24T16:10:32;3.45;;;2.60;;
24090;SDS011;12272;52.426;17.100;2023-04-24T16:15:34;4.85;;;3.08;;
24090;SDS011;12272;52.426;17.100;2023-04-24T16:20:37;7.80;;;4.03;;
24090;SDS011;12272;52.426;17.100;2023-04-24T16:25:40;4.93;;;3.00;;
24090;SDS011;12272;52.426;17.100;2023-04-24T16:30:43;2.63;;;2.20;;
24090;SDS011;12272;52.426;17.100;2023-04-24T16:35:45;3.47;;;3.00;;
24090;SDS011;12272;52.426;17.100;2023-04-24T16:40:48;10.00;;;6.20;;
24090;SDS011;12272;52.426;17.100;2023-04-24T16:45:50;9.17;;;5.17;;
24090;SDS011;12272;52.426;17.100;2023-04-24T16:50:53;6.55;;;5.75;;
24090;SDS011;12272;52.426;17.100;2023-04-24T16:55:56;11.47;;;6.57;;
24090;SDS011;12272;52.426;17.100;2023-04-24T17:00:58;8.83;;;6.10;;
24090;SDS011;12272;52.426;17.100;2023-04-24T17:06:01;9.17;;;6.10;;
24090;SDS011;12272;52.426;17.100;2023-04-24T17:11:04;25.90;;;12.67;;
24090;SDS011;12272;52.426;17.100;2023-04-24T17:16:06;15.20;;;9.80;;
24090;SDS011;12272;52.426;17.100;2023-04-24T17:21:09;11.20;;;7.83;;
24090;SDS011;12272;52.426;17.100;2023-04-24T17:26:11;15.83;;;8.30;;
24090;SDS011;12272;52.426;17.100;2023-04-24T17:31:14;7.73;;;5.10;;
24090;SDS011;12272;52.426;17.100;2023-04-24T17:36:17;7.37;;;5.57;;
24090;SDS011;12272;52.426;17.100;2023-04-24T17:41:19;8.70;;;6.00;;
24090;SDS011;12272;52.426;17.100;2023-04-24T17:46:22;7.38;;;5.05;;
24090;SDS011;12272;52.426;17.100;2023-04-24T17:51:25;11.53;;;5.07;;
24090;SDS011;12272;52.426;17.100;2023-04-24T17:56:28;6.77;;;4.57;;
24090;SDS011;12272;52.426;17.100;2023-04-24T18:01:31;7.10;;;4.13;;
24090;SDS011;12272;52.426;17.100;2023-04-24T18:06:33;8.97;;;5.30;;
24090;SDS011;12272;52.426;17.100;2023-04-24T18:11:36;7.70;;;4.03;;
24090;SDS011;12272;52.426;17.100;2023-04-24T18:16:39;7.90;;;4.43;;
24090;SDS011;12272;52.426;17.100;2023-04-24T18:21:41;7.70;;;4.23;;
24090;SDS011;12272;52.426;17.100;2023-04-24T18:26:44;7.87;;;3.57;;
24090;SDS011;12272;52.426;17.100;2023-04-24T18:31:47;7.20;;;5.07;;
24090;SDS011;12272;52.426;17.100;2023-04-24T18:36:50;5.90;;;4.03;;
24090;SDS011;12272;52.426;17.100;2023-04-24T18:41:53;8.87;;;4.40;;
24090;SDS011;12272;52.426;17.100;2023-04-24T18:46:56;5.83;;;4.23;;
24090;SDS011;12272;52.426;17.100;2023-04-24T18:51:59;8.67;;;5.10;;
24090;SDS011;12272;52.426;17.100;2023-04-24T18:57:02;9.63;;;6.70;;
24090;SDS011;12272;52.426;17.100;2023-04-24T19:02:05;9.70;;;7.50;;
24090;SDS011;12272;52.426;17.100;2023-04-24T19:07:08;11.93;;;6.27;;
24090;SDS011;12272;52.426;17.100;2023-04-24T19:12:10;18.23;;;11.90;;
24090;SDS011;12272;52.426;17.100;2023-04-24T19:17:13;17.10;;;9.50;;
24090;SDS011;12272;52.426;17.100;2023-04-24T19:22:19;8.93;;;6.20;;
24090;SDS011;12272;52.426;17.100;2023-04-24T19:27:21;10.70;;;5.17;;
24090;SDS011;12272;52.426;17.100;2023-04-24T19:32:24;10.47;;;5.53;;
24090;SDS011;12272;52.426;17.100;2023-04-24T19:37:27;11.37;;;7.73;;
24090;SDS011;12272;52.426;17.100;2023-04-24T19:42:29;16.57;;;10.17;;
24090;SDS011;12272;52.426;17.100;2023-04-24T19:47:47;20.77;;;12.30;;
24090;SDS011;12272;52.426;17.100;2023-04-24T19:52:50;19.53;;;11.80;;
24090;SDS011;12272;52.426;17.100;2023-04-24T19:57:52;18.57;;;10.60;;
24090;SDS011;12272;52.426;17.100;2023-04-24T20:02:54;13.40;;;8.67;;
24090;SDS011;12272;52.426;17.100;2023-04-24T20:07:57;12.87;;;8.93;;
24090;SDS011;12272;52.426;17.100;2023-04-24T20:13:00;12.30;;;8.67;;
24090;SDS011;12272;52.426;17.100;2023-04-24T20:18:02;14.93;;;9.50;;
24090;SDS011;12272;52.426;17.100;2023-04-24T20:23:05;16.90;;;10.07;;
24090;SDS011;12272;52.426;17.100;2023-04-24T20:28:07;20.67;;;13.27;;
24090;SDS011;12272;52.426;17.100;2023-04-24T20:33:10;31.60;;;21.30;;
24090;SDS011;12272;52.426;17.100;2023-04-24T20:38:12;22.93;;;11.67;;
24090;SDS011;12272;52.426;17.100;2023-04-24T20:43:16;17.30;;;10.40;;
24090;SDS011;12272;52.426;17.100;2023-04-24T20:48:18;15.63;;;9.97;;
24090;SDS011;12272;52.426;17.100;2023-04-24T20:53:21;14.97;;;9.33;;
24090;SDS011;12272;52.426;17.100;2023-04-24T20:58:23;13.43;;;8.23;;
24090;SDS011;12272;52.426;17.100;2023-04-24T21:03:26;13.57;;;6.47;;
24090;SDS011;12272;52.426;17.100;2023-04-24T21:08:29;13.37;;;6.77;;
24090;SDS011;12272;52.426;17.100;2023-04-24T21:13:31;10.50;;;6.40;;
24090;SDS011;12272;52.426;17.100;2023-04-24T21:18:34;11.63;;;7.07;;
24090;SDS011;12272;52.426;17.100;2023-04-24T21:23:42;12.10;;;4.97;;
24090;SDS011;12272;52.426;17.100;2023-04-24T21:28:44;11.80;;;6.10;;
24090;SDS011;12272;52.426;17.100;2023-04-24T21:33:47;7.27;;;5.30;;
24090;SDS011;12272;52.426;17.100;2023-04-24T21:38:50;9.87;;;4.10;;
24090;SDS011;12272;52.426;17.100;2023-04-24T21:43:52;9.37;;;5.43;;
24090;SDS011;12272;52.426;17.100;2023-04-24T21:48:55;8.53;;;4.40;;
24090;SDS011;12272;52.426;17.100;2023-04-24T21:53:57;8.57;;;4.40;;
24090;SDS011;12272;52.426;17.100;2023-04-24T21:59:00;7.20;;;5.13;;
24090;SDS011;12272;52.426;17.100;2023-04-24T22:04:03;6.10;;;3.97;;
24090;SDS011;12272;52.426;17.100;2023-04-24T22:09:06;9.00;;;1.92;;
24090;SDS011;12272;52.426;17.100;2023-04-24T22:14:09;4.78;;;3.40;;
24090;SDS011;12272;52.426;17.100;2023-04-24T22:19:12;6.93;;;2.37;;
24090;SDS011;12272;52.426;17.100;2023-04-24T22:24:16;7.75;;;4.60;;
24090;SDS011;12272;52.426;17.100;2023-04-24T22:29:19;5.60;;;3.40;;
24090;SDS011;12272;52.426;17.100;2023-04-24T22:34:22;4.63;;;3.23;;
24090;SDS011;12272;52.426;17.100;2023-04-24T22:39:25;8.30;;;3.70;;
24090;SDS011;12272;52.426;17.100;2023-04-24T22:44:27;4.50;;;3.45;;
24090;SDS011;12272;52.426;17.100;2023-04-24T22:49:29;4.30;;;3.15;;
24090;SDS011;12272;52.426;17.100;2023-04-24T22:54:32;3.67;;;2.70;;
24090;SDS011;12272;52.426;17.100;2023-04-24T22:59:37;7.80;;;3.60;;
24090;SDS011;12272;52.426;17.100;2023-04-24T23:04:39;7.40;;;3.00;;
24090;SDS011;12272;52.426;17.100;2023-04-24T23:09:42;4.20;;;2.95;;
24090;SDS011;12272;52.426;17.100;2023-04-24T23:14:44;5.90;;;2.90;;
24090;SDS011;12272;52.426;17.100;2023-04-24T23:19:47;6.63;;;3.53;;
24090;SDS011;12272;52.426;17.100;2023-04-24T23:24:49;4.40;;;2.70;;
24090;SDS011;12272;52.426;17.100;2023-04-24T23:29:52;5.70;;;3.17;;
24090;SDS011;12272;52.426;17.100;2023-04-24T23:34:54;4.50;;;3.00;;
24090;SDS011;12272;52.426;17.100;2023-04-24T23:39:57;3.88;;;1.67;;
24090;SDS011;12272;52.426;17.100;2023-04-24T23:45:00;3.55;;;2.95;;
24090;SDS011;12272;52.426;17.100;2023-04-24T23:50:02;2.33;;;2.13;;
24090;SDS011;12272;52.426;17.100;2023-04-24T23:55:05;3.67;;;2.85;;
